Time;durP1;ratioP1;P1;durP2;ratioP2;P2;SDS_P1;SDS_P2;PMS_P1;PMS_P2;Temp;Humidity;BMP_temperature;BMP_pressure;BME280_temperature;BME280_humidity;BME280_pressure;Samples;Min_cycle;Max_cycle;Signal;HPM_P1;HPM_P2
2020/12/05 00:01:18;;;;;;;2.75;1.67;;;6.90;67.60;;;;;;6219649;28;20042;-73
2020/12/05 00:04:19;;;;;;;3.55;1.73;;;6.90;67.80;;;;;;6220200;28;20478;-71
2020/12/05 00:07:20;;;;;;;2.53;1.80;;;6.90;68.00;;;;;;6238500;28;20041;-73
2020/12/05 00:10:21;;;;;;;7.53;2.75;;;6.90;67.90;;;;;;6235417;28;20037;-73
2020/12/05 00:13:22;;;;;;;6.38;3.35;;;6.90;67.90;;;;;;6229042;28;20034;-72
2020/12/05 00:16:22;;;;;;;4.82;3.15;;;6.90;67.70;;;;;;6227495;28;20366;-73
2020/12/05 00:27:55;;;;;;;4.25;2.72;;;6.90;67.90;;;;;;6220952;28;20041;-74
2020/12/05 00:30:56;;;;;;;5.65;2.30;;;6.90;68.00;;;;;;6234558;28;20424;-74
2020/12/05 00:33:57;;;;;;;5.07;2.63;;;6.80;67.80;;;;;;6218622;28;20034;-73
2020/12/05 00:36:57;;;;;;;5.20;2.20;;;6.80;67.90;;;;;;6233796;28;20489;-72
2020/12/05 00:39:58;;;;;;;3.08;1.88;;;6.80;68.00;;;;;;6225421;28;20430;-72
2020/12/05 00:42:59;;;;;;;3.67;2.05;;;6.70;67.90;;;;;;6239730;28;20041;-73
2020/12/05 00:46:03;;;;;;;3.72;1.98;;;6.60;68.00;;;;;;6223294;28;20134;-72
2020/12/05 00:49:04;;;;;;;5.28;2.28;;;6.60;68.10;;;;;;6239808;28;20033;-73
2020/12/05 00:52:05;;;;;;;4.88;3.35;;;6.60;68.30;;;;;;6231122;28;20038;-73
2020/12/05 00:55:07;;;;;;;7.90;3.80;;;6.60;68.30;;;;;;6223136;28;20065;-72
2020/12/05 00:58:09;;;;;;;6.00;3.40;;;6.70;68.40;;;;;;6240096;28;20041;-72
2020/12/05 01:01:11;;;;;;;8.00;3.53;;;6.60;68.30;;;;;;6258556;28;20406;-74
2020/12/05 01:04:12;;;;;;;10.48;5.07;;;6.60;68.20;;;;;;6232605;28;20203;-73
2020/12/05 01:07:14;;;;;;;6.28;3.40;;;6.60;68.30;;;;;;6250355;28;20029;-73
2020/12/05 01:10:15;;;;;;;7.97;3.45;;;6.70;68.40;;;;;;6241801;28;20048;-72
2020/12/05 01:13:16;;;;;;;7.85;3.92;;;6.60;68.30;;;;;;6233373;28;20065;-73
2020/12/05 01:16:18;;;;;;;13.07;5.53;;;6.60;68.30;;;;;;6222064;28;20366;-73
2020/12/05 01:19:19;;;;;;;10.73;4.43;;;6.60;68.40;;;;;;6222634;28;20049;-72
2020/12/05 01:22:21;;;;;;;11.90;4.88;;;6.70;68.30;;;;;;6223708;28;20125;-73
2020/12/05 01:25:22;;;;;;;13.10;5.43;;;6.60;68.40;;;;;;6235070;28;20038;-74
2020/12/05 01:28:23;;;;;;;11.13;4.85;;;6.70;68.40;;;;;;6241474;28;20485;-74
2020/12/05 01:31:24;;;;;;;12.07;5.32;;;6.60;68.30;;;;;;6240025;28;20041;-73
2020/12/05 01:34:25;;;;;;;5.47;3.17;;;6.60;68.30;;;;;;6241644;28;20033;-73
2020/12/05 01:37:26;;;;;;;7.50;3.60;;;6.70;68.30;;;;;;6257298;28;20048;-73
2020/12/05 01:40:26;;;;;;;9.02;3.20;;;6.60;68.20;;;;;;6240844;28;20045;-74
2020/12/05 01:43:29;;;;;;;7.97;3.95;;;6.60;68.10;;;;;;6239487;28;20054;-72
2020/12/05 01:46:39;;;;;;;5.80;3.22;;;6.60;68.10;;;;;;6257793;28;20536;-72
2020/12/05 01:49:41;;;;;;;9.95;3.65;;;6.50;68.10;;;;;;6255718;28;20045;-72
2020/12/05 01:52:43;;;;;;;8.07;3.72;;;6.60;68.20;;;;;;6257107;28;20044;-73
2020/12/05 01:55:46;;;;;;;8.50;3.78;;;6.50;68.30;;;;;;6238510;28;20485;-74
2020/12/05 01:58:47;;;;;;;8.80;3.80;;;6.60;68.50;;;;;;6244326;28;20126;-73
2020/12/05 02:01:50;;;;;;;8.75;3.83;;;6.60;68.50;;;;;;6273870;28;20408;-73
2020/12/05 02:05:09;;;;;;;5.95;3.55;;;6.60;68.30;;;;;;6238272;28;20490;-74
2020/12/05 02:08:13;;;;;;;8.00;3.60;;;6.70;68.30;;;;;;6229074;28;20060;-72
2020/12/05 02:11:20;;;;;;;6.85;3.53;;;6.70;68.00;;;;;;6214374;28;20030;-74
2020/12/05 02:14:24;;;;;;;6.93;4.20;;;6.60;67.90;;;;;;6214621;28;20022;-72
2020/12/05 02:17:27;;;;;;;8.13;4.10;;;6.60;68.10;;;;;;6231527;28;20048;-73
2020/12/05 02:20:30;;;;;;;11.68;4.35;;;6.50;67.90;;;;;;6216292;28;20041;-73
2020/12/05 02:23:31;;;;;;;7.65;4.25;;;6.50;68.10;;;;;;6232305;28;20033;-73
2020/12/05 02:26:32;;;;;;;9.38;5.05;;;6.40;68.20;;;;;;6218170;28;20159;-74
2020/12/05 02:29:36;;;;;;;10.52;4.57;;;6.40;68.40;;;;;;6216767;28;20037;-73
2020/12/05 02:32:37;;;;;;;9.48;4.65;;;6.50;68.60;;;;;;6216985;28;20466;-72
2020/12/05 02:35:39;;;;;;;14.80;4.93;;;6.50;68.30;;;;;;6225985;28;20121;-73
2020/12/05 02:38:57;;;;;;;12.25;5.57;;;6.40;68.10;;;;;;6218677;28;20056;-73
2020/12/05 02:41:59;;;;;;;12.27;5.28;;;6.50;68.20;;;;;;6225036;28;20045;-72
2020/12/05 02:44:59;;;;;;;9.35;4.78;;;6.40;68.20;;;;;;6220241;28;20045;-73
2020/12/05 02:48:01;;;;;;;8.98;5.07;;;6.40;68.20;;;;;;6221521;28;20058;-73
2020/12/05 02:51:02;;;;;;;10.52;4.78;;;6.30;68.20;;;;;;6227832;28;20040;-72
2020/12/05 02:54:03;;;;;;;9.65;5.05;;;6.30;68.40;;;;;;6244000;28;20466;-73
2020/12/05 02:57:04;;;;;;;12.57;5.10;;;6.20;68.50;;;;;;6232730;28;20038;-74
2020/12/05 03:00:05;;;;;;;11.95;5.47;;;6.20;68.60;;;;;;6235323;28;20037;-73
2020/12/05 03:03:07;;;;;;;11.45;5.93;;;6.10;68.70;;;;;;6219285;28;20087;-73
2020/12/05 03:06:08;;;;;;;13.10;6.80;;;6.10;68.90;;;;;;6199022;28;20052;-73
2020/12/05 03:09:08;;;;;;;9.38;5.13;;;6.20;69.20;;;;;;6218514;28;20034;-72
2020/12/05 03:12:11;;;;;;;12.93;6.35;;;6.20;69.10;;;;;;6219472;28;20087;-73
2020/12/05 03:15:12;;;;;;;15.18;6.88;;;6.20;68.90;;;;;;6221130;28;20038;-72
2020/12/05 03:18:13;;;;;;;20.50;5.78;;;6.20;68.70;;;;;;6235829;28;20490;-73
2020/12/05 03:21:16;;;;;;;22.50;8.05;;;6.20;68.60;;;;;;6220416;28;20077;-73
2020/12/05 03:24:17;;;;;;;17.25;7.65;;;6.20;68.80;;;;;;6219947;28;20065;-73
2020/12/05 03:27:18;;;;;;;15.57;7.18;;;6.10;68.90;;;;;;6228525;28;20128;-74
2020/12/05 03:30:19;;;;;;;16.95;6.95;;;6.10;68.90;;;;;;6227429;28;20066;-73
2020/12/05 03:33:21;;;;;;;12.50;5.88;;;6.20;68.90;;;;;;6201133;28;20092;-73
2020/12/05 03:36:22;;;;;;;12.32;5.72;;;6.20;68.80;;;;;;6217504;28;20034;-73
2020/12/05 03:39:23;;;;;;;11.80;6.10;;;6.30;68.90;;;;;;6219215;28;20065;-73
2020/12/05 03:42:24;;;;;;;16.92;6.72;;;6.30;68.70;;;;;;6224624;28;20040;-73
2020/12/05 03:45:25;;;;;;;14.85;6.50;;;6.20;68.40;;;;;;6223543;28;20117;-73
2020/12/05 03:48:27;;;;;;;12.88;5.75;;;6.20;68.50;;;;;;6217539;28;20033;-73
2020/12/05 03:51:28;;;;;;;12.23;6.00;;;6.20;68.50;;;;;;6219808;28;20044;-72
2020/12/05 03:54:29;;;;;;;13.93;5.93;;;6.10;68.70;;;;;;6235092;28;20447;-73
2020/12/05 03:57:30;;;;;;;13.18;6.53;;;6.10;68.80;;;;;;6219913;28;20382;-73
2020/12/05 04:00:31;;;;;;;17.65;7.63;;;6.10;68.90;;;;;;6220070;28;20048;-73
2020/12/05 04:03:31;;;;;;;14.90;6.80;;;6.10;69.10;;;;;;6224447;28;20038;-73
2020/12/05 04:06:32;;;;;;;14.15;7.00;;;6.20;69.10;;;;;;6218756;28;20053;-73
2020/12/05 04:09:33;;;;;;;17.60;6.45;;;6.20;69.00;;;;;;6218866;28;20053;-73
2020/12/05 04:12:34;;;;;;;15.00;6.15;;;6.30;69.00;;;;;;6238895;28;20065;-73
2020/12/05 04:15:35;;;;;;;14.57;6.93;;;6.30;69.00;;;;;;6240308;28;20121;-73
2020/12/05 04:18:36;;;;;;;20.58;7.13;;;6.40;68.90;;;;;;6262631;28;20042;-73
2020/12/05 04:21:37;;;;;;;17.58;7.80;;;6.40;68.70;;;;;;6242370;28;20033;-73
2020/12/05 04:24:39;;;;;;;20.08;8.32;;;6.40;68.80;;;;;;6241637;28;20037;-73
2020/12/05 04:27:40;;;;;;;19.88;7.25;;;6.40;68.70;;;;;;6243353;28;20041;-73
2020/12/05 04:30:41;;;;;;;18.70;7.38;;;6.40;68.70;;;;;;6243307;28;20125;-73
2020/12/05 04:33:42;;;;;;;15.82;6.32;;;6.40;68.50;;;;;;6243491;28;20041;-73
2020/12/05 04:36:43;;;;;;;16.48;7.10;;;6.40;68.70;;;;;;6242069;28;20454;-73
2020/12/05 04:39:43;;;;;;;16.85;7.78;;;6.40;68.60;;;;;;6275012;28;20037;-73
2020/12/05 04:42:46;;;;;;;15.98;6.78;;;6.40;68.70;;;;;;6241593;28;20065;-73
2020/12/05 04:45:47;;;;;;;18.35;7.50;;;6.40;68.70;;;;;;6235708;28;20522;-73
2020/12/05 04:48:49;;;;;;;17.65;8.65;;;6.50;68.70;;;;;;6224459;28;20038;-73
2020/12/05 04:51:56;;;;;;;19.40;7.55;;;6.50;68.60;;;;;;6215487;28;20053;-73
2020/12/05 04:54:57;;;;;;;14.18;6.88;;;6.50;68.50;;;;;;6223993;28;20120;-72
2020/12/05 04:57:59;;;;;;;16.80;7.32;;;6.50;68.50;;;;;;6254150;28;20048;-73
2020/12/05 05:01:00;;;;;;;14.55;5.88;;;6.50;68.50;;;;;;6241158;28;20053;-73
2020/12/05 05:04:02;;;;;;;13.38;6.93;;;6.50;68.60;;;;;;6225069;28;20041;-73
2020/12/05 05:07:04;;;;;;;18.48;7.85;;;6.60;68.70;;;;;;6215542;28;20030;-73
2020/12/05 05:10:16;;;;;;;17.08;7.10;;;6.50;68.60;;;;;;6216005;28;20472;-73
2020/12/05 05:13:21;;;;;;;15.88;6.78;;;6.60;68.60;;;;;;6214791;28;20030;-73
2020/12/05 05:16:24;;;;;;;15.48;7.60;;;6.60;68.60;;;;;;6217129;28;20049;-73
2020/12/05 05:19:25;;;;;;;22.10;8.05;;;6.60;68.60;;;;;;6233383;28;20038;-73
2020/12/05 05:22:26;;;;;;;23.48;8.88;;;6.70;68.70;;;;;;6218046;28;20073;-73
2020/12/05 05:25:27;;;;;;;25.23;10.05;;;6.70;68.60;;;;;;6238972;28;20061;-73
2020/12/05 05:28:29;;;;;;;28.70;10.35;;;6.70;68.50;;;;;;6231901;28;20050;-73
2020/12/05 05:31:50;;;;;;;25.80;9.30;;;6.70;68.50;;;;;;6218445;28;20042;-72
2020/12/05 05:35:05;;;;;;;26.10;9.93;;;6.70;68.50;;;;;;6227518;28;20038;-72
2020/12/05 05:38:06;;;;;;;25.75;9.15;;;6.70;68.50;;;;;;6235883;28;20038;-73
2020/12/05 05:41:18;;;;;;;27.27;9.75;;;6.70;68.50;;;;;;6218544;28;20088;-73
2020/12/05 05:44:27;;;;;;;35.30;9.13;;;6.70;68.50;;;;;;6216914;28;20048;-73
2020/12/05 05:47:29;;;;;;;21.75;7.82;;;6.80;68.50;;;;;;6227949;28;20129;-73
2020/12/05 05:50:35;;;;;;;27.92;9.18;;;6.80;68.40;;;;;;6215027;28;20060;-73
2020/12/05 05:53:35;;;;;;;25.05;8.27;;;6.80;68.50;;;;;;6246775;28;20421;-73
2020/12/05 05:56:36;;;;;;;21.35;8.27;;;6.80;68.40;;;;;;6231353;28;20129;-73
2020/12/05 05:59:45;;;;;;;22.02;8.57;;;6.90;68.50;;;;;;6216814;28;20105;-73
2020/12/05 06:02:51;;;;;;;26.23;9.38;;;6.90;68.20;;;;;;6226566;28;20034;-73
2020/12/05 06:05:57;;;;;;;21.55;8.20;;;6.90;68.20;;;;;;6216688;28;20041;-73
2020/12/05 06:09:03;;;;;;;27.25;9.23;;;6.90;68.20;;;;;;6218592;28;20475;-74
2020/12/05 06:12:04;;;;;;;22.27;8.75;;;6.90;68.20;;;;;;6215696;28;20083;-73
2020/12/05 06:15:05;;;;;;;19.40;7.78;;;7.00;68.20;;;;;;6216180;28;20467;-75
2020/12/05 06:18:07;;;;;;;21.00;8.35;;;7.00;68.20;;;;;;6216923;28;20042;-75
2020/12/05 06:21:07;;;;;;;21.55;7.70;;;7.00;67.90;;;;;;6218358;28;20041;-75
2020/12/05 06:24:10;;;;;;;23.17;7.97;;;7.00;67.80;;;;;;6218061;28;20034;-73
2020/12/05 06:27:14;;;;;;;21.50;7.97;;;7.10;67.90;;;;;;6217747;28;20038;-73
2020/12/05 06:30:15;;;;;;;18.30;8.00;;;7.10;67.50;;;;;;6217179;28;20056;-73
2020/12/05 06:33:42;;;;;;;20.27;7.97;;;7.00;67.40;;;;;;6217407;28;21539;-73
2020/12/05 06:36:43;;;;;;;15.13;6.68;;;7.10;67.50;;;;;;6215723;28;20084;-73
2020/12/05 06:40:00;;;;;;;18.17;8.10;;;7.00;67.30;;;;;;6213651;28;20435;-73
2020/12/05 06:43:12;;;;;;;24.42;9.07;;;7.10;67.60;;;;;;6234047;28;20083;-73
2020/12/05 06:46:44;;;;;;;18.13;7.28;;;7.10;67.70;;;;;;6222853;28;20048;-73
2020/12/05 06:49:46;;;;;;;22.88;8.80;;;7.10;67.60;;;;;;6217959;28;20034;-73
2020/12/05 06:52:47;;;;;;;22.55;9.43;;;7.20;67.50;;;;;;6234553;28;20044;-72
2020/12/05 06:55:50;;;;;;;23.02;9.05;;;7.20;68.30;;;;;;6239554;28;20045;-73
2020/12/05 06:58:55;;;;;;;24.52;9.55;;;7.20;67.40;;;;;;6224434;28;20037;-73
2020/12/05 07:01:56;;;;;;;20.23;7.65;;;7.20;67.20;;;;;;6228258;28;20402;-73
2020/12/05 07:05:16;;;;;;;21.65;8.80;;;7.30;67.20;;;;;;6238504;28;20053;-74
2020/12/05 07:08:25;;;;;;;22.52;9.00;;;7.30;67.10;;;;;;6236674;28;20088;-74
2020/12/05 07:11:26;;;;;;;22.35;7.85;;;7.30;67.10;;;;;;6240859;28;20030;-73
2020/12/05 07:14:27;;;;;;;18.98;6.88;;;7.30;67.00;;;;;;6235382;28;20584;-73
2020/12/05 07:17:28;;;;;;;16.05;6.63;;;7.30;66.80;;;;;;6211439;28;20042;-73
2020/12/05 07:20:29;;;;;;;18.42;7.57;;;7.30;66.80;;;;;;6231342;28;20456;-73
2020/12/05 07:23:30;;;;;;;17.70;8.25;;;7.30;66.60;;;;;;6217324;28;20099;-73
2020/12/05 07:26:33;;;;;;;20.85;8.70;;;7.20;66.50;;;;;;6219996;28;20044;-73
2020/12/05 07:29:34;;;;;;;23.27;8.75;;;7.20;66.70;;;;;;6214685;28;20566;-73
2020/12/05 07:32:37;;;;;;;17.60;7.10;;;7.20;66.70;;;;;;6200072;28;20041;-73
2020/12/05 07:35:38;;;;;;;23.08;8.75;;;7.20;66.80;;;;;;6242998;28;20048;-73
2020/12/05 07:38:42;;;;;;;20.55;7.88;;;7.20;66.90;;;;;;6259357;28;20116;-73
2020/12/05 07:41:50;;;;;;;25.40;8.52;;;7.20;66.90;;;;;;6232234;28;20164;-72
2020/12/05 07:44:51;;;;;;;17.80;7.22;;;7.20;66.70;;;;;;6223114;28;20045;-73
2020/12/05 07:47:52;;;;;;;15.27;6.90;;;7.20;66.80;;;;;;6243057;28;20508;-74
2020/12/05 07:50:53;;;;;;;17.92;7.95;;;7.20;66.80;;;;;;6242889;28;20048;-73
2020/12/05 07:53:54;;;;;;;17.20;8.65;;;7.30;66.70;;;;;;6242128;28;20087;-74
2020/12/05 07:57:06;;;;;;;22.75;8.80;;;7.30;66.60;;;;;;6259406;28;20057;-73
2020/12/05 08:00:12;;;;;;;17.35;8.27;;;7.30;66.70;;;;;;6236804;28;20241;-73
2020/12/05 08:03:47;;;;;;;17.42;6.80;;;7.30;66.40;;;;;;6232110;28;20694;-70
2020/12/05 08:07:33;;;;;;;18.60;8.07;;;7.30;66.30;;;;;;6223465;28;20090;-72
2020/12/05 08:10:35;;;;;;;18.25;7.05;;;7.30;66.50;;;;;;6272052;28;20458;-71
2020/12/05 08:13:36;;;;;;;19.60;7.72;;;7.30;66.60;;;;;;6243379;28;20037;-68
2020/12/05 08:16:38;;;;;;;21.52;8.38;;;7.30;66.70;;;;;;6224659;28;20038;-69
2020/12/05 08:19:42;;;;;;;20.48;8.23;;;7.30;66.70;;;;;;6238154;28;20387;-71
2020/12/05 08:22:43;;;;;;;19.23;8.15;;;7.30;66.70;;;;;;6257661;28;20055;-72
2020/12/05 08:25:47;;;;;;;25.17;8.82;;;7.40;66.70;;;;;;6246587;28;20049;-69
2020/12/05 08:28:49;;;;;;;22.60;9.07;;;7.50;66.50;;;;;;6242883;28;20410;-69
2020/12/05 08:31:50;;;;;;;22.45;8.73;;;7.50;66.40;;;;;;6261078;28;20037;-70
2020/12/05 08:35:01;;;;;;;15.77;7.22;;;7.50;66.10;;;;;;6243102;28;20040;-70
2020/12/05 08:38:03;;;;;;;17.05;6.90;;;7.50;66.10;;;;;;6234268;28;20033;-70
2020/12/05 08:41:04;;;;;;;20.67;8.25;;;7.50;66.10;;;;;;6237914;28;20034;-68
2020/12/05 08:44:13;;;;;;;18.33;7.15;;;7.40;65.90;;;;;;6216262;28;20453;-70
2020/12/05 08:47:14;;;;;;;30.77;7.97;;;7.50;66.00;;;;;;6220169;28;20026;-71
2020/12/05 08:50:30;;;;;;;25.05;8.13;;;7.50;65.80;;;;;;6218118;28;20062;-69
2020/12/05 08:53:31;;;;;;;24.98;8.23;;;7.50;66.00;;;;;;6214280;28;20048;-69
2020/12/05 08:56:33;;;;;;;21.27;9.45;;;7.50;65.90;;;;;;6229125;28;20065;-70
2020/12/05 08:59:34;;;;;;;21.75;8.65;;;7.50;66.00;;;;;;6214040;28;20034;-70
2020/12/05 09:02:36;;;;;;;18.58;8.57;;;7.50;65.90;;;;;;6226071;28;20079;-69
2020/12/05 09:05:47;;;;;;;20.00;8.48;;;7.60;66.00;;;;;;6253659;28;20044;-69
2020/12/05 09:08:48;;;;;;;18.20;7.85;;;7.60;65.80;;;;;;6238734;28;20034;-69
2020/12/05 09:12:09;;;;;;;16.27;7.72;;;7.70;65.80;;;;;;6237186;28;20107;-70
2020/12/05 09:15:09;;;;;;;17.90;7.47;;;7.80;65.80;;;;;;6241227;28;20041;-69
2020/12/05 09:18:10;;;;;;;15.80;7.40;;;7.90;66.60;;;;;;6242478;28;20447;-69
2020/12/05 09:21:13;;;;;;;13.95;6.30;;;7.90;65.50;;;;;;6241309;28;20120;-69
2020/12/05 09:24:14;;;;;;;16.63;6.93;;;8.00;65.40;;;;;;6239417;28;20088;-70
2020/12/05 09:27:15;;;;;;;8.88;5.07;;;8.00;65.20;;;;;;6240526;28;20045;-69
2020/12/05 09:30:15;;;;;;;8.45;5.20;;;8.00;65.00;;;;;;6221230;28;20038;-69
2020/12/05 09:33:17;;;;;;;10.90;4.93;;;8.10;65.00;;;;;;6240265;28;20044;-70
2020/12/05 09:36:19;;;;;;;6.93;4.07;;;8.10;64.80;;;;;;6232918;28;20041;-71
2020/12/05 09:39:20;;;;;;;11.02;5.10;;;8.10;64.60;;;;;;6215258;28;20030;-79
2020/12/05 09:42:24;;;;;;;6.32;3.33;;;8.10;64.60;;;;;;6215960;28;20041;-70
2020/12/05 09:45:25;;;;;;;8.75;4.80;;;8.00;64.30;;;;;;6217997;28;20688;-70
2020/12/05 09:48:26;;;;;;;13.98;4.85;;;8.00;64.30;;;;;;6231837;28;20116;-69
2020/12/05 09:51:28;;;;;;;10.85;4.03;;;8.00;64.40;;;;;;6213899;28;20038;-71
2020/12/05 09:54:29;;;;;;;7.63;3.85;;;8.10;64.30;;;;;;6215726;28;20037;-70
2020/12/05 09:57:30;;;;;;;8.95;4.13;;;8.10;64.30;;;;;;6229876;28;20029;-70
2020/12/05 10:00:31;;;;;;;7.15;3.47;;;8.10;63.90;;;;;;6246450;28;20532;-69
2020/12/05 10:03:32;;;;;;;8.27;3.88;;;8.10;63.50;;;;;;6253754;28;20152;-70
2020/12/05 10:06:33;;;;;;;8.98;3.97;;;8.00;63.50;;;;;;6255530;28;20049;-69
2020/12/05 10:09:37;;;;;;;8.95;4.20;;;8.10;63.70;;;;;;6236291;28;20048;-69
2020/12/05 10:12:44;;;;;;;6.47;3.72;;;8.10;63.70;;;;;;6237489;28;20052;-69
2020/12/05 10:15:45;;;;;;;8.27;3.75;;;8.10;63.60;;;;;;6239200;28;20110;-69
2020/12/05 10:18:45;;;;;;;8.23;4.55;;;8.20;63.40;;;;;;6239569;28;20037;-69
2020/12/05 10:21:48;;;;;;;6.38;3.28;;;8.10;63.20;;;;;;6242920;28;20041;-69
2020/12/05 10:24:50;;;;;;;12.57;3.85;;;8.10;63.40;;;;;;6213742;28;20819;-69
2020/12/05 10:27:51;;;;;;;6.45;3.67;;;8.10;63.40;;;;;;6240318;28;20045;-71
2020/12/05 10:30:55;;;;;;;9.57;4.43;;;8.20;63.30;;;;;;6237311;28;20037;-69
2020/12/05 10:33:56;;;;;;;9.25;5.07;;;8.20;63.10;;;;;;6265275;28;20033;-69
2020/12/05 10:36:57;;;;;;;11.80;5.38;;;8.20;63.20;;;;;;6255130;28;20029;-70
2020/12/05 10:40:01;;;;;;;21.98;8.98;;;8.20;63.20;;;;;;6240643;28;20044;-70
2020/12/05 10:43:05;;;;;;;10.20;4.63;;;8.30;63.20;;;;;;6239307;28;20084;-71
2020/12/05 10:46:06;;;;;;;14.88;6.90;;;8.30;63.30;;;;;;6257461;28;20033;-70
2020/12/05 10:49:08;;;;;;;23.67;9.93;;;8.40;63.10;;;;;;6254950;28;20029;-70
2020/12/05 10:52:09;;;;;;;28.48;12.32;;;8.40;62.80;;;;;;6256188;28;20048;-70
2020/12/05 10:55:10;;;;;;;25.77;11.65;;;8.40;62.90;;;;;;6238195;28;20133;-69
2020/12/05 10:58:11;;;;;;;20.30;9.32;;;8.40;62.90;;;;;;6239990;28;20034;-69
2020/12/05 11:01:12;;;;;;;22.63;9.07;;;8.50;63.00;;;;;;6261428;28;20092;-70
2020/12/05 11:04:13;;;;;;;28.42;9.85;;;8.60;62.70;;;;;;6243197;28;20061;-69
2020/12/05 11:07:14;;;;;;;20.08;9.93;;;8.60;62.50;;;;;;6272596;28;20203;-68
2020/12/05 11:10:15;;;;;;;24.60;9.57;;;8.60;62.60;;;;;;6251330;28;20079;-70
2020/12/05 11:13:17;;;;;;;24.50;10.02;;;8.70;62.60;;;;;;6257608;28;20152;-70
2020/12/05 11:16:22;;;;;;;30.20;11.40;;;8.60;62.30;;;;;;6244804;28;20033;-69
2020/12/05 11:19:23;;;;;;;29.92;11.93;;;8.70;62.40;;;;;;6245042;28;20385;-70
2020/12/05 11:22:24;;;;;;;29.90;10.15;;;8.60;62.30;;;;;;6243890;28;20033;-71
2020/12/05 11:25:25;;;;;;;41.10;14.35;;;8.60;62.50;;;;;;6243415;28;20167;-69
2020/12/05 11:28:25;;;;;;;24.63;9.23;;;8.60;62.70;;;;;;6245571;28;20121;-70
2020/12/05 11:31:26;;;;;;;26.10;10.30;;;8.60;62.80;;;;;;6243565;28;20366;-69
2020/12/05 11:34:27;;;;;;;21.98;9.00;;;8.60;62.60;;;;;;6225946;28;20039;-69
2020/12/05 11:37:28;;;;;;;30.00;10.38;;;8.50;62.30;;;;;;6226382;28;20450;-69
2020/12/05 11:40:29;;;;;;;32.58;13.13;;;8.40;62.40;;;;;;6242944;28;20068;-70
2020/12/05 11:43:30;;;;;;;26.33;11.75;;;8.30;62.40;;;;;;6245280;28;20033;-72
2020/12/05 11:46:32;;;;;;;22.80;8.52;;;8.30;62.90;;;;;;6246146;28;20042;-69
2020/12/05 11:49:33;;;;;;;38.03;14.88;;;8.20;63.00;;;;;;6243177;28;20404;-71
2020/12/05 11:52:34;;;;;;;41.42;14.55;;;8.10;63.20;;;;;;6245298;28;20034;-73
2020/12/05 11:55:35;;;;;;;30.95;11.70;;;8.10;63.60;;;;;;6226629;28;20041;-73
2020/12/05 11:58:37;;;;;;;31.10;12.52;;;8.20;63.70;;;;;;6247052;28;20033;-74
2020/12/05 12:01:42;;;;;;;25.25;9.80;;;8.20;63.40;;;;;;6271276;28;20041;-72
2020/12/05 12:04:42;;;;;;;24.05;8.45;;;8.20;63.40;;;;;;6251839;28;20770;-72
2020/12/05 12:07:43;;;;;;;18.27;8.35;;;8.20;63.60;;;;;;6248554;28;20030;-70
2020/12/05 12:10:44;;;;;;;26.27;9.13;;;8.20;63.70;;;;;;6247277;28;20060;-73
2020/12/05 12:13:45;;;;;;;19.58;8.57;;;8.20;63.30;;;;;;6246043;28;20041;-72
2020/12/05 12:16:48;;;;;;;28.15;9.82;;;8.10;63.60;;;;;;6242033;28;20477;-73
2020/12/05 12:19:48;;;;;;;34.83;13.05;;;8.10;63.70;;;;;;6239427;28;20038;-74
2020/12/05 12:22:50;;;;;;;33.55;14.05;;;8.10;63.70;;;;;;6225549;28;20462;-73
2020/12/05 12:25:52;;;;;;;35.50;14.05;;;8.00;63.80;;;;;;6244261;28;20037;-73
2020/12/05 12:29:46;;;;;;;37.97;12.88;;;8.00;64.10;;;;;;6239508;28;20103;-72
2020/12/05 12:32:46;;;;;;;33.78;10.23;;;8.00;64.40;;;;;;6215371;28;20034;-71
2020/12/05 12:35:47;;;;;;;18.38;7.13;;;8.00;64.30;;;;;;6215169;28;20359;-73
2020/12/05 12:38:48;;;;;;;22.80;9.40;;;8.00;64.20;;;;;;6215352;28;20471;-75
2020/12/05 12:41:49;;;;;;;22.48;9.27;;;7.90;64.10;;;;;;6216023;28;20471;-74
2020/12/05 12:44:50;;;;;;;21.25;7.93;;;7.90;64.20;;;;;;6251282;28;20507;-75
2020/12/05 12:48:38;;;;;;;29.10;9.65;;;7.80;64.20;;;;;;6257266;28;20724;-75
2020/12/05 12:51:12;;;;;;;28.70;9.68;;;7.70;64.30;;;;;;6222384;28;20033;-76
2020/12/05 12:54:14;;;;;;;29.35;9.98;;;7.70;64.70;;;;;;6239583;28;20037;-74
2020/12/05 12:57:16;;;;;;;22.23;9.63;;;7.70;64.90;;;;;;6247916;28;20079;-76
2020/12/05 13:00:18;;;;;;;22.98;10.07;;;7.80;65.00;;;;;;6225082;28;20090;-75
2020/12/05 13:03:19;;;;;;;35.30;13.65;;;7.80;64.80;;;;;;6241634;28;20048;-74
2020/12/05 13:06:21;;;;;;;27.98;8.95;;;7.80;64.70;;;;;;6254878;28;20042;-75
2020/12/05 13:09:30;;;;;;;25.20;9.30;;;7.80;64.80;;;;;;6241595;28;20042;-75
2020/12/05 13:12:32;;;;;;;27.55;9.30;;;7.90;64.90;;;;;;6239729;28;20045;-75
2020/12/05 13:15:33;;;;;;;23.90;9.65;;;7.90;65.00;;;;;;6264287;28;20120;-75
2020/12/05 13:18:34;;;;;;;22.15;7.45;;;7.90;65.10;;;;;;6266800;28;20038;-74
2020/12/05 13:21:36;;;;;;;38.60;13.13;;;8.00;65.00;;;;;;6241017;28;20040;-74
2020/12/05 13:24:37;;;;;;;31.48;8.70;;;8.00;64.70;;;;;;6238195;28;20041;-76
2020/12/05 13:27:38;;;;;;;35.47;10.32;;;8.00;64.80;;;;;;6217959;28;20053;-73
2020/12/05 13:30:39;;;;;;;19.25;7.90;;;8.00;64.60;;;;;;6250450;28;20041;-74
2020/12/05 13:33:41;;;;;;;24.38;9.02;;;7.90;64.50;;;;;;6240013;28;20033;-71
2020/12/05 13:36:43;;;;;;;21.05;8.45;;;7.90;64.40;;;;;;6239782;28;20026;-73
2020/12/05 13:39:44;;;;;;;22.38;7.68;;;7.90;64.50;;;;;;6241067;28;20040;-74
2020/12/05 13:42:45;;;;;;;20.08;8.75;;;7.80;64.50;;;;;;6245024;28;20152;-75
2020/12/05 13:45:46;;;;;;;23.50;8.35;;;7.80;64.70;;;;;;6223472;28;20042;-73
2020/12/05 13:48:47;;;;;;;22.75;7.28;;;7.80;64.80;;;;;;6242513;28;20076;-73
2020/12/05 13:51:48;;;;;;;23.33;8.27;;;7.80;65.00;;;;;;6273923;28;20502;-72
2020/12/05 13:54:49;;;;;;;37.28;13.88;;;7.80;64.80;;;;;;6238821;28;20375;-74
2020/12/05 13:57:50;;;;;;;37.70;14.85;;;7.80;64.70;;;;;;6240978;28;20087;-73
2020/12/05 14:00:51;;;;;;;35.05;10.52;;;7.80;64.70;;;;;;6230537;28;20116;-74
2020/12/05 14:03:52;;;;;;;18.00;7.10;;;7.80;64.90;;;;;;6254013;28;20101;-73
2020/12/05 14:06:56;;;;;;;19.40;7.50;;;7.80;64.60;;;;;;6240504;28;20045;-72
2020/12/05 14:09:57;;;;;;;24.00;7.93;;;7.70;64.70;;;;;;6235098;28;20500;-72
2020/12/05 14:12:58;;;;;;;31.23;10.55;;;7.60;65.00;;;;;;6241237;28;20033;-73
2020/12/05 14:16:00;;;;;;;19.88;8.95;;;7.60;65.20;;;;;;6240847;28;20429;-76
2020/12/05 14:19:01;;;;;;;21.50;8.10;;;7.60;65.40;;;;;;6255331;28;20311;-72
2020/12/05 14:22:02;;;;;;;28.48;8.95;;;7.70;65.60;;;;;;6239194;28;20052;-73
2020/12/05 14:25:03;;;;;;;21.45;7.65;;;7.70;65.70;;;;;;6270085;28;20336;-74
2020/12/05 14:28:04;;;;;;;28.23;10.95;;;7.80;65.30;;;;;;6254683;28;20121;-75
2020/12/05 14:31:06;;;;;;;23.98;9.45;;;7.80;65.30;;;;;;6239671;28;20529;-73
2020/12/05 14:34:07;;;;;;;31.67;10.52;;;7.80;64.80;;;;;;6227222;28;20120;-74
2020/12/05 14:37:08;;;;;;;27.80;10.93;;;7.70;64.70;;;;;;6242528;28;20059;-73
2020/12/05 14:40:10;;;;;;;21.95;9.02;;;7.70;65.10;;;;;;6242021;28;20040;-74
2020/12/05 14:43:11;;;;;;;17.88;8.23;;;7.70;65.20;;;;;;6259911;28;20336;-74
2020/12/05 14:46:13;;;;;;;17.52;7.57;;;7.70;65.10;;;;;;6240773;28;20424;-74
2020/12/05 14:49:14;;;;;;;16.88;6.82;;;7.60;64.90;;;;;;6240729;28;20106;-74
2020/12/05 14:52:15;;;;;;;22.02;8.98;;;7.60;64.90;;;;;;6218965;28;20044;-74
2020/12/05 14:55:16;;;;;;;21.42;8.02;;;7.50;65.00;;;;;;6244219;28;20113;-73
2020/12/05 14:58:17;;;;;;;22.85;8.73;;;7.50;65.30;;;;;;6274374;28;20084;-73
2020/12/05 15:01:25;;;;;;;16.20;6.68;;;7.50;65.20;;;;;;6259758;28;20033;-74
2020/12/05 15:04:25;;;;;;;24.35;6.63;;;7.50;65.00;;;;;;6237305;28;20393;-73
2020/12/05 15:07:26;;;;;;;21.08;7.63;;;7.40;65.20;;;;;;6239136;28;20065;-74
2020/12/05 15:10:27;;;;;;;17.52;7.25;;;7.40;65.60;;;;;;6227271;28;20045;-73
2020/12/05 15:13:28;;;;;;;18.15;7.15;;;7.40;65.80;;;;;;6240154;28;20098;-73
2020/12/05 15:16:29;;;;;;;19.42;8.02;;;7.40;65.70;;;;;;6240538;28;20045;-73
2020/12/05 15:19:30;;;;;;;19.80;6.45;;;7.40;65.80;;;;;;6243357;28;20038;-73
2020/12/05 15:22:31;;;;;;;24.65;8.27;;;7.40;65.70;;;;;;6268711;28;20037;-74
2020/12/05 15:29:37;;;;;;;17.58;5.22;;;7.40;65.50;;;;;;6236932;28;20296;-74
2020/12/05 15:32:38;;;;;;;16.10;6.22;;;7.40;65.70;;;;;;6222114;28;20142;-75
2020/12/05 15:35:40;;;;;;;21.88;6.47;;;7.30;65.60;;;;;;6219527;28;20033;-73
2020/12/05 15:38:42;;;;;;;15.77;6.88;;;7.30;65.60;;;;;;6218236;28;20089;-73
2020/12/05 15:41:43;;;;;;;19.38;7.72;;;7.20;65.60;;;;;;6235624;28;20104;-73
2020/12/05 15:44:44;;;;;;;23.05;7.65;;;7.30;65.70;;;;;;6214693;28;20489;-72
2020/12/05 15:47:46;;;;;;;23.55;9.02;;;7.30;65.60;;;;;;6226730;28;20116;-74
2020/12/05 15:50:47;;;;;;;19.40;7.65;;;7.30;65.80;;;;;;6219599;28;20119;-74
2020/12/05 15:53:48;;;;;;;18.88;7.95;;;7.30;65.70;;;;;;6234217;28;20042;-72
2020/12/05 15:56:49;;;;;;;31.20;10.57;;;7.20;65.80;;;;;;6210666;28;20034;-72
2020/12/05 15:59:50;;;;;;;26.67;10.90;;;7.30;65.90;;;;;;6211979;28;20795;-74
2020/12/05 16:02:50;;;;;;;20.48;8.70;;;7.30;65.70;;;;;;6200919;28;20038;-72
2020/12/05 16:05:57;;;;;;;20.45;8.90;;;7.30;65.80;;;;;;6217033;28;20120;-73